createdAt,value
2018-01-20T00:00:28.150Z,2.0
2018-01-20T00:15:26.234Z,2.0
2018-01-20T00:23:26.114Z,2.1
2018-01-20T00:30:26.233Z,2.1
2018-01-20T00:45:26.238Z,2.1
2018-01-20T00:58:26.240Z,2.2
2018-01-20T01:00:25.909Z,2.2
2018-01-20T01:13:26.242Z,2.3
2018-01-20T01:15:26.019Z,2.3
2018-01-20T01:30:26.254Z,2.3
2018-01-20T01:45:26.268Z,2.3
2018-01-20T02:00:28.198Z,2.3
2018-01-20T02:15:26.271Z,2.3
2018-01-20T02:19:25.979Z,2.2
2018-01-20T02:30:26.282Z,2.2
2018-01-20T02:38:26.242Z,2.3
2018-01-20T02:45:26.281Z,2.3
2018-01-20T03:00:28.222Z,2.3
2018-01-20T03:15:26.292Z,2.3
2018-01-20T03:30:27.330Z,2.3
2018-01-20T03:39:26.259Z,2.4
2018-01-20T03:45:26.304Z,2.4
2018-01-20T04:00:28.055Z,2.4
2018-01-20T04:15:26.320Z,2.4
2018-01-20T04:30:27.351Z,2.4
2018-01-20T04:44:26.316Z,2.3
2018-01-20T04:45:25.963Z,2.3
2018-01-20T05:00:28.157Z,2.3
2018-01-20T05:06:26.269Z,2.2
2018-01-20T05:15:26.232Z,2.2
2018-01-20T05:16:25.961Z,2.1
2018-01-20T05:25:26.311Z,2.2
2018-01-20T05:30:26.211Z,2.2
2018-01-20T05:40:26.319Z,2.3
2018-01-20T05:45:26.252Z,2.3
2018-01-20T06:01:26.267Z,2.3
2018-01-20T06:15:26.253Z,2.3
2018-01-20T06:18:25.994Z,2.4
2018-01-20T06:19:25.970Z,2.3
2018-01-20T06:30:26.148Z,2.3
2018-01-20T06:45:26.082Z,2.3
2018-01-20T07:00:26.117Z,2.3
2018-01-20T07:12:26.072Z,2.2
2018-01-20T07:15:26.131Z,2.2
2018-01-20T07:30:26.083Z,2.2
2018-01-20T07:45:26.099Z,2.2
2018-01-20T08:00:26.077Z,2.2
2018-01-20T08:01:26.068Z,2.3
2018-01-20T08:14:26.114Z,2.4
2018-01-20T08:15:26.119Z,2.4
2018-01-20T08:30:26.115Z,2.4
2018-01-20T08:45:26.123Z,2.4
2018-01-20T08:46:26.136Z,2.5
2018-01-20T09:00:26.109Z,2.5
2018-01-20T09:12:26.304Z,2.6
2018-01-20T09:15:26.120Z,2.6
2018-01-20T09:30:26.108Z,2.6
2018-01-20T09:43:26.100Z,2.5
2018-01-20T09:45:26.096Z,2.5
2018-01-20T09:54:26.087Z,2.6
2018-01-20T10:00:26.091Z,2.6
2018-01-20T10:15:26.128Z,2.6
2018-01-20T10:26:26.126Z,2.7
2018-01-20T10:30:26.146Z,2.7
2018-01-20T10:45:26.077Z,2.7
2018-01-20T10:53:26.069Z,2.8
2018-01-20T11:00:26.081Z,2.8
2018-01-20T11:10:26.087Z,2.9
2018-01-20T11:15:26.103Z,2.9
2018-01-20T11:24:26.094Z,3.0
2018-01-20T11:30:26.108Z,3.0
2018-01-20T11:45:26.120Z,3.0
2018-01-20T11:53:26.062Z,2.9
2018-01-20T12:00:26.070Z,2.9
2018-01-20T12:11:26.141Z,2.8
2018-01-20T12:15:26.092Z,2.8
2018-01-20T12:30:26.091Z,2.8
2018-01-20T12:38:26.082Z,2.9
2018-01-20T12:45:26.145Z,2.9
2018-01-20T13:00:26.142Z,2.9
2018-01-20T13:15:26.065Z,2.9
2018-01-20T13:20:26.068Z,2.8
2018-01-20T13:30:26.098Z,2.8
2018-01-20T13:37:26.335Z,2.9
2018-01-20T13:43:26.085Z,3.0
2018-01-20T13:45:26.109Z,3.0
2018-01-20T14:00:26.091Z,3.0
2018-01-20T14:15:26.077Z,3.0
2018-01-20T14:20:26.066Z,2.9
2018-01-20T14:30:26.101Z,2.9
2018-01-20T14:34:26.065Z,2.8
2018-01-20T14:45:27.112Z,2.8
2018-01-20T15:00:26.095Z,2.8
2018-01-20T15:15:26.092Z,2.8
2018-01-20T15:26:26.057Z,2.7
2018-01-20T15:30:26.069Z,2.7
2018-01-20T15:45:26.047Z,2.7
2018-01-20T16:00:26.093Z,2.7
2018-01-20T16:05:26.093Z,2.8
2018-01-20T16:15:26.040Z,2.8
2018-01-20T16:30:26.057Z,2.8
2018-01-20T16:45:26.068Z,2.8
2018-01-20T17:01:26.301Z,2.8
2018-01-20T17:15:26.301Z,2.8
2018-01-20T17:30:26.205Z,2.9
2018-01-20T17:45:27.234Z,2.9
2018-01-20T18:00:28.605Z,2.9
2018-01-20T18:15:26.186Z,2.9
2018-01-20T18:30:26.541Z,2.9
2018-01-20T18:45:26.201Z,2.9
2018-01-20T19:00:28.215Z,2.9
2018-01-20T19:15:28.290Z,2.9
2018-01-20T19:20:26.174Z,3.0
2018-01-20T19:30:26.248Z,3.0
2018-01-20T19:45:26.258Z,3.0
2018-01-20T20:00:28.241Z,3.0
2018-01-20T20:15:26.264Z,3.0
2018-01-20T20:31:26.190Z,3.0
2018-01-20T20:45:26.283Z,3.0
2018-01-20T21:00:28.265Z,3.0
2018-01-20T21:13:26.267Z,2.9
2018-01-20T21:15:25.955Z,2.9
2018-01-20T21:30:26.294Z,2.8
2018-01-20T21:45:26.300Z,2.8
2018-01-20T22:00:28.490Z,2.8
2018-01-20T22:11:26.336Z,2.7
2018-01-20T22:15:26.074Z,2.7
2018-01-20T22:30:26.322Z,2.7
2018-01-20T22:45:26.314Z,2.7
2018-01-20T23:00:28.319Z,2.7
2018-01-20T23:11:26.305Z,2.6
2018-01-20T23:15:25.995Z,2.6
2018-01-20T23:24:26.191Z,2.5
2018-01-20T23:30:26.267Z,2.5
2018-01-20T23:36:26.272Z,2.4
2018-01-20T23:45:26.234Z,2.4
